Time;durP1;ratioP1;P1;durP2;ratioP2;P2;SDS_P1;SDS_P2;PMS_P1;PMS_P2;Temp;Humidity;BMP_temperature;BMP_pressure;BME280_temperature;BME280_humidity;BME280_pressure;Samples;Min_cycle;Max_cycle;Signal;HPM_P1;HPM_P2
2023/01/24 00:00:40;;;;;;;2.57;2.47;;;;;1.00;97159.00;;;;5033886;28;20675;-57
2023/01/24 00:03:11;;;;;;;4.77;3.47;;;;;1.00;97169.00;;;;5016296;28;20685;-58
2023/01/24 00:05:39;;;;;;;2.20;2.10;;;;;1.00;97161.00;;;;5034204;28;20655;-58
2023/01/24 00:08:07;;;;;;;3.30;3.00;;;;;1.00;97177.00;;;;5016188;28;20286;-58
2023/01/24 00:10:34;;;;;;;4.30;2.60;;;;;1.00;97164.00;;;;5034693;28;20203;-59
2023/01/24 00:13:02;;;;;;;2.97;2.70;;;;;1.10;97168.00;;;;5034061;28;20213;-59
2023/01/24 00:15:29;;;;;;;3.17;2.83;;;;;1.00;97157.00;;;;5033761;28;20658;-58
2023/01/24 00:17:57;;;;;;;3.50;2.87;;;;;1.10;97159.00;;;;5033734;28;20242;-59
2023/01/24 00:20:26;;;;;;;3.40;3.13;;;;;1.10;97162.00;;;;5033684;28;20199;-57
2023/01/24 00:22:53;;;;;;;3.43;3.23;;;;;1.00;97173.00;;;;5033534;28;20227;-59
2023/01/24 00:25:20;;;;;;;4.37;4.07;;;;;1.00;97165.00;;;;5033505;28;20292;-56
2023/01/24 00:27:48;;;;;;;2.07;1.97;;;;;1.10;97163.00;;;;5033527;28;20197;-58
2023/01/24 00:30:16;;;;;;;2.30;1.73;;;;;1.10;97168.00;;;;5033766;28;20198;-59
2023/01/24 00:32:43;;;;;;;2.20;2.00;;;;;1.10;97163.00;;;;5033733;28;20550;-57
2023/01/24 00:35:11;;;;;;;4.53;3.10;;;;;1.20;97167.00;;;;5033457;28;20199;-57
2023/01/24 00:37:40;;;;;;;2.07;1.93;;;;;1.20;97158.00;;;;5033723;28;20201;-58
2023/01/24 00:40:09;;;;;;;3.50;3.27;;;;;1.30;97160.00;;;;5033382;28;20206;-58
2023/01/24 00:42:36;;;;;;;2.50;2.40;;;;;1.20;97156.00;;;;5033240;28;20754;-58
2023/01/24 00:45:04;;;;;;;3.60;3.40;;;;;1.20;97148.00;;;;5033544;28;20196;-58
2023/01/24 00:47:31;;;;;;;2.37;2.23;;;;;1.10;97148.00;;;;5033783;28;20199;-58
2023/01/24 00:49:59;;;;;;;3.80;2.67;;;;;1.00;97153.00;;;;5015554;28;20198;-58
2023/01/24 00:52:26;;;;;;;3.80;3.53;;;;;1.10;97151.00;;;;5033204;28;20219;-58
2023/01/24 00:54:55;;;;;;;2.87;2.70;;;;;1.10;97157.00;;;;5033511;28;20562;-59
2023/01/24 00:57:24;;;;;;;3.07;2.73;;;;;1.00;97154.00;;;;5033157;28;20187;-58
2023/01/24 00:59:51;;;;;;;6.33;4.60;;;;;1.00;97165.00;;;;5033148;28;20260;-58
2023/01/24 01:02:18;;;;;;;2.67;2.43;;;;;1.00;97162.00;;;;5033280;28;20273;-57
2023/01/24 01:04:46;;;;;;;4.10;3.70;;;;;1.00;97164.00;;;;5033080;28;20198;-57
2023/01/24 01:07:13;;;;;;;2.90;2.70;;;;;1.00;97175.00;;;;5033004;28;20215;-57
2023/01/24 01:09:41;;;;;;;3.47;2.50;;;;;1.00;97175.00;;;;5032604;28;20692;-58
2023/01/24 01:12:10;;;;;;;2.07;1.97;;;;;1.00;97173.00;;;;5015069;28;20224;-58
2023/01/24 01:14:37;;;;;;;4.90;4.07;;;;;1.00;97181.00;;;;5032651;28;20252;-58
2023/01/24 01:17:05;;;;;;;3.03;2.33;;;;;1.00;97180.00;;;;5032859;28;20187;-59
2023/01/24 01:19:32;;;;;;;1.97;1.83;;;;;1.10;97177.00;;;;5032653;28;20203;-58
2023/01/24 01:22:00;;;;;;;3.00;2.70;;;;;1.10;97188.00;;;;5032679;28;20225;-59
2023/01/24 01:24:27;;;;;;;3.53;3.30;;;;;1.00;97175.00;;;;5033376;28;20552;-58
2023/01/24 01:26:54;;;;;;;3.43;3.13;;;;;1.00;97189.00;;;;5033092;28;20213;-57
2023/01/24 01:29:23;;;;;;;1.50;1.43;;;;;1.00;97179.00;;;;5033151;28;20229;-58
2023/01/24 01:31:50;;;;;;;3.20;2.77;;;;;1.10;97187.00;;;;5033066;28;20275;-58
2023/01/24 01:34:18;;;;;;;2.70;2.50;;;;;1.00;97186.00;;;;5015048;28;20198;-58
2023/01/24 01:36:45;;;;;;;1.80;1.70;;;;;1.00;97192.00;;;;5033270;28;20195;-59
2023/01/24 01:39:13;;;;;;;3.13;2.93;;;;;1.10;97184.00;;;;5032677;28;20199;-58
2023/01/24 01:41:40;;;;;;;2.47;2.27;;;;;1.00;97196.00;;;;5032696;28;20226;-58
2023/01/24 01:44:40;;;;;;;2.87;2.67;;;;;1.10;97195.00;;;;5032710;28;20249;-59
2023/01/24 01:47:20;;;;;;;2.33;2.23;;;;;1.10;97196.00;;;;5032935;28;20205;-59
2023/01/24 01:49:54;;;;;;;5.93;3.60;;;;;1.00;97190.00;;;;5033263;28;20549;-59
2023/01/24 01:52:23;;;;;;;3.07;2.73;;;;;1.10;97193.00;;;;5032669;28;20288;-59
2023/01/24 01:54:51;;;;;;;8.27;3.70;;;;;1.00;97196.00;;;;5032907;28;20291;-59
2023/01/24 01:57:22;;;;;;;4.60;2.37;;;;;0.90;97195.00;;;;5014952;28;20253;-57
2023/01/24 01:59:54;;;;;;;6.73;3.43;;;;;1.00;97202.00;;;;5032812;28;20189;-57
2023/01/24 02:02:23;;;;;;;3.97;2.63;;;;;0.90;97196.00;;;;5032805;28;20216;-58
2023/01/24 02:04:55;;;;;;;3.23;3.03;;;;;1.00;97201.00;;;;5014848;28;20209;-58
2023/01/24 02:07:27;;;;;;;3.60;3.30;;;;;0.90;97199.00;;;;5032702;28;20210;-58
2023/01/24 02:09:56;;;;;;;3.60;2.73;;;;;1.00;97193.00;;;;5032709;28;20187;-58
2023/01/24 02:12:26;;;;;;;7.63;2.90;;;;;1.00;97195.00;;;;5032552;28;20215;-58
2023/01/24 02:17:44;;;;;;;3.13;2.93;;;;;0.90;97192.00;;;;5014697;28;20204;-59
2023/01/24 02:20:35;;;;;;;5.13;4.63;;;;;1.00;97197.00;;;;5032751;28;20248;-59
2023/01/24 02:23:16;;;;;;;2.60;2.50;;;;;0.90;97192.00;;;;5048233;22;20761;-67
2023/01/24 02:25:48;;;;;;;3.80;3.50;;;;;0.90;97196.00;;;;5036010;28;20183;-69
2023/01/24 02:28:17;;;;;;;3.77;3.47;;;;;1.00;97209.00;;;;5036210;28;20201;-68
2023/01/24 02:30:44;;;;;;;2.97;2.77;;;;;1.00;97202.00;;;;5035843;28;20206;-67
2023/01/24 02:33:14;;;;;;;4.73;2.87;;;;;1.00;97210.00;;;;5035744;28;20256;-68
2023/01/24 02:35:42;;;;;;;3.57;3.37;;;;;1.00;97200.00;;;;5035899;28;20202;-67
2023/01/24 02:38:17;;;;;;;3.87;3.43;;;;;1.10;97194.00;;;;5035663;28;20190;-67
2023/01/24 02:40:46;;;;;;;3.23;2.67;;;;;1.10;97209.00;;;;5035886;28;20647;-67
2023/01/24 02:43:17;;;;;;;3.17;2.87;;;;;1.10;97211.00;;;;5035577;28;20295;-68
2023/01/24 02:45:44;;;;;;;2.83;2.63;;;;;0.90;97211.00;;;;5035441;28;20251;-69
2023/01/24 02:48:12;;;;;;;6.33;3.43;;;;;0.90;97209.00;;;;5035750;28;20566;-67
2023/01/24 02:53:30;;;;;;;3.37;3.07;;;;;1.00;97215.00;;;;5002796;28;20589;-68
2023/01/24 02:58:45;;;;;;;3.97;2.87;;;;;1.00;97208.00;;;;5035713;28;20314;-69
2023/01/24 03:01:14;;;;;;;4.63;3.73;;;;;1.00;97217.00;;;;5035476;28;20202;-68
2023/01/24 03:03:42;;;;;;;4.40;4.00;;;;;1.10;97214.00;;;;5035537;28;20324;-68
2023/01/24 03:06:10;;;;;;;2.87;2.67;;;;;1.10;97219.00;;;;5017406;28;20224;-68
2023/01/24 03:08:38;;;;;;;3.37;3.07;;;;;1.00;97218.00;;;;5035175;28;20253;-68
2023/01/24 03:11:06;;;;;;;2.47;2.37;;;;;1.10;97213.00;;;;5035115;28;20196;-69
2023/01/24 03:35:53;;;;;;;5.23;3.73;;;;;0.90;97216.00;;;;5034977;28;20232;-69
2023/01/24 03:41:06;;;;;;;5.03;4.57;;;;;1.00;97215.00;;;;5034633;28;20190;-69
2023/01/24 03:43:33;;;;;;;3.67;3.43;;;;;0.90;97216.00;;;;5034480;28;20201;-69
2023/01/24 03:46:01;;;;;;;3.47;3.20;;;;;0.90;97211.00;;;;5034392;28;20203;-69
2023/01/24 03:48:34;;;;;;;3.17;2.87;;;;;0.90;97211.00;;;;5034639;28;20202;-69
2023/01/24 03:53:46;;;;;;;3.60;3.37;;;;;0.90;97216.00;;;;5034629;28;20201;-68
2023/01/24 03:56:14;;;;;;;3.70;3.07;;;;;1.00;97227.00;;;;5034236;28;20658;-68
2023/01/24 03:58:41;;;;;;;4.60;4.17;;;;;1.00;97220.00;;;;5034216;28;20199;-68
2023/01/24 04:01:08;;;;;;;2.97;2.77;;;;;1.00;97205.00;;;;5033993;28;20199;-68
2023/01/24 04:03:37;;;;;;;2.40;2.30;;;;;1.00;97219.00;;;;5034170;28;20240;-69
2023/01/24 04:06:05;;;;;;;3.20;3.00;;;;;1.00;97227.00;;;;5034710;28;20560;-69
2023/01/24 04:08:32;;;;;;;5.07;2.73;;;;;1.00;97218.00;;;;5034524;28;20191;-69
2023/01/24 04:11:00;;;;;;;3.10;2.90;;;;;0.90;97226.00;;;;5034168;28;20195;-69
2023/01/24 04:13:27;;;;;;;3.80;3.27;;;;;0.80;97220.00;;;;5033882;28;20220;-69
2023/01/24 04:15:55;;;;;;;3.87;3.27;;;;;0.80;97237.00;;;;5034406;28;20201;-68
2023/01/24 04:18:22;;;;;;;4.17;3.73;;;;;0.80;97224.00;;;;5034076;28;20210;-69
2023/01/24 04:20:51;;;;;;;3.83;3.53;;;;;0.90;97219.00;;;;5033813;28;20195;-68
2023/01/24 04:23:18;;;;;;;3.07;2.80;;;;;0.80;97225.00;;;;5033679;28;20280;-68
2023/01/24 04:25:54;;;;;;;2.73;2.60;;;;;0.90;97221.00;;;;5033975;28;20194;-68
2023/01/24 04:28:22;;;;;;;3.47;3.17;;;;;0.90;97227.00;;;;5033593;28;20207;-68
2023/01/24 04:30:49;;;;;;;2.87;2.63;;;;;1.00;97218.00;;;;5034139;28;20248;-68
2023/01/24 04:33:17;;;;;;;3.60;3.10;;;;;1.00;97223.00;;;;5033574;28;20218;-68
2023/01/24 04:35:44;;;;;;;4.77;3.30;;;;;1.00;97225.00;;;;5033830;28;20195;-69
2023/01/24 04:38:13;;;;;;;4.60;2.43;;;;;1.00;97223.00;;;;5033505;28;20246;-69
2023/01/24 04:40:41;;;;;;;6.60;3.80;;;;;0.90;97219.00;;;;5033449;28;20659;-68
2023/01/24 04:43:08;;;;;;;3.87;3.53;;;;;1.00;97223.00;;;;5033377;28;20792;-68
2023/01/24 04:45:36;;;;;;;2.73;2.53;;;;;0.80;97230.00;;;;5033007;28;20261;-68
2023/01/24 04:48:03;;;;;;;3.33;3.03;;;;;0.90;97225.00;;;;5015585;28;20221;-69
2023/01/24 04:50:31;;;;;;;4.93;4.53;;;;;0.90;97232.00;;;;5033285;28;20248;-67
2023/01/24 04:52:58;;;;;;;1.40;1.40;;;;;0.90;97221.00;;;;5033265;28;20716;-69
2023/01/24 04:55:27;;;;;;;2.93;2.63;;;;;0.80;97229.00;;;;5033755;28;20261;-68
2023/01/24 04:57:54;;;;;;;3.77;3.07;;;;;0.80;97232.00;;;;5033548;28;20194;-67
2023/01/24 05:00:21;;;;;;;3.37;3.10;;;;;0.90;97241.00;;;;5033957;28;20200;-68
2023/01/24 05:02:51;;;;;;;2.20;2.10;;;;;0.90;97235.00;;;;5033356;28;20214;-68
2023/01/24 05:05:19;;;;;;;8.83;3.13;;;;;0.90;97232.00;;;;5034241;28;20553;-68
2023/01/24 05:07:46;;;;;;;3.07;2.87;;;;;0.90;97243.00;;;;5033067;28;20231;-69
2023/01/24 05:10:14;;;;;;;2.83;2.63;;;;;0.90;97246.00;;;;5033133;28;20254;-67
2023/01/24 05:12:42;;;;;;;3.83;2.57;;;;;0.90;97258.00;;;;5032975;28;20278;-67
2023/01/24 05:15:10;;;;;;;2.27;2.07;;;;;0.90;97247.00;;;;5032986;28;20196;-67
2023/01/24 05:17:38;;;;;;;3.60;3.30;;;;;0.90;97253.00;;;;5033073;28;20192;-67
2023/01/24 05:20:06;;;;;;;2.90;2.70;;;;;1.00;97249.00;;;;5033017;28;20196;-67
2023/01/24 05:22:33;;;;;;;3.23;2.93;;;;;1.00;97258.00;;;;5032919;28;20224;-69
2023/01/24 05:25:01;;;;;;;3.80;3.23;;;;;1.00;97258.00;;;;5032931;28;20730;-67
2023/01/24 05:27:28;;;;;;;3.57;2.97;;;;;0.90;97258.00;;;;5032836;28;20226;-67
2023/01/24 05:29:57;;;;;;;3.90;3.57;;;;;0.90;97261.00;;;;5033168;28;20203;-69
2023/01/24 05:32:24;;;;;;;4.43;4.13;;;;;0.90;97260.00;;;;5033001;28;20709;-67
2023/01/24 05:34:51;;;;;;;4.23;2.57;;;;;1.00;97271.00;;;;5032838;28;20196;-70
2023/01/24 05:37:19;;;;;;;5.07;3.70;;;;;0.90;97255.00;;;;5032855;28;20199;-66
2023/01/24 05:39:46;;;;;;;2.83;2.30;;;;;0.90;97267.00;;;;5032803;28;20199;-68
2023/01/24 05:42:14;;;;;;;3.03;2.83;;;;;0.90;97274.00;;;;5032685;28;20273;-66
2023/01/24 05:44:41;;;;;;;4.33;2.20;;;;;0.90;97272.00;;;;5032756;28;20679;-69
2023/01/24 05:47:10;;;;;;;4.40;3.97;;;;;0.90;97268.00;;;;5032844;28;20219;-67
2023/01/24 05:49:37;;;;;;;2.57;2.47;;;;;0.80;97279.00;;;;5032922;28;20204;-67
2023/01/24 05:52:05;;;;;;;4.30;3.87;;;;;0.90;97273.00;;;;5033087;28;20215;-67
2023/01/24 05:54:32;;;;;;;6.23;4.00;;;;;0.80;97273.00;;;;5032885;28;20215;-67
2023/01/24 05:56:59;;;;;;;9.93;3.27;;;;;0.80;97274.00;;;;5034715;28;20200;-67
2023/01/24 05:59:27;;;;;;;3.37;3.07;;;;;1.00;97272.00;;;;5036386;28;20195;-69
2023/01/24 06:01:54;;;;;;;4.60;4.17;;;;;1.00;97280.00;;;;5036443;28;20709;-69
2023/01/24 06:04:23;;;;;;;2.60;2.17;;;;;1.10;97280.00;;;;5036317;28;20265;-68
2023/01/24 06:06:51;;;;;;;8.23;3.17;;;;;1.00;97280.00;;;;5036201;28;20203;-68
2023/01/24 06:09:18;;;;;;;3.70;3.23;;;;;0.90;97289.00;;;;5036443;28;20231;-68
2023/01/24 06:11:45;;;;;;;4.63;3.97;;;;;0.90;97274.00;;;;5036164;28;20751;-68
2023/01/24 06:14:13;;;;;;;5.67;4.03;;;;;0.90;97277.00;;;;5036116;28;20200;-68
2023/01/24 06:16:40;;;;;;;3.27;3.07;;;;;0.90;97289.00;;;;5036379;28;20195;-69
2023/01/24 06:19:11;;;;;;;3.83;2.53;;;;;0.90;97290.00;;;;5036115;28;20204;-68
2023/01/24 06:21:45;;;;;;;3.20;3.00;;;;;0.90;97290.00;;;;5035736;28;20292;-68
2023/01/24 06:24:18;;;;;;;3.20;2.83;;;;;0.80;97292.00;;;;5036613;28;20241;-69
2023/01/24 06:26:47;;;;;;;3.23;2.80;;;;;1.20;97285.00;;;;5035902;28;20689;-68
2023/01/24 06:29:15;;;;;;;2.70;2.23;;;;;1.40;97300.00;;;;5036089;28;20278;-67
2023/01/24 06:31:56;;;;;;;6.33;2.67;;;;;1.50;97290.00;;;;5035749;28;20216;-68
2023/01/24 06:34:48;;;;;;;2.90;2.70;;;;;1.40;97291.00;;;;5036094;28;20642;-68
2023/01/24 06:37:25;;;;;;;3.00;2.80;;;;;1.70;97294.00;;;;5035370;28;20226;-68
2023/01/24 06:39:54;;;;;;;2.73;2.53;;;;;1.80;97292.00;;;;5035853;28;20192;-68
2023/01/24 06:42:23;;;;;;;2.53;2.33;;;;;1.90;97302.00;;;;5035642;28;20231;-68
2023/01/24 06:44:51;;;;;;;4.03;3.73;;;;;1.80;97310.00;;;;5035683;28;20204;-69
2023/01/24 06:47:18;;;;;;;2.17;2.07;;;;;1.80;97299.00;;;;5035463;28;20635;-66
2023/01/24 06:49:46;;;;;;;2.30;2.20;;;;;1.70;97297.00;;;;5035612;28;20207;-67
2023/01/24 06:52:14;;;;;;;2.83;2.63;;;;;1.60;97304.00;;;;5035313;28;20714;-67
2023/01/24 06:54:42;;;;;;;3.83;3.53;;;;;1.50;97304.00;;;;5035428;28;20200;-69
2023/01/24 06:57:10;;;;;;;3.73;3.30;;;;;1.40;97308.00;;;;5035351;28;20195;-69
2023/01/24 06:59:37;;;;;;;4.03;2.67;;;;;1.20;97309.00;;;;5035361;28;20189;-70
2023/01/24 07:02:05;;;;;;;2.83;2.63;;;;;1.30;97313.00;;;;5035247;28;20289;-69
2023/01/24 07:04:32;;;;;;;3.63;2.93;;;;;1.20;97310.00;;;;5035278;28;20199;-68
2023/01/24 07:07:00;;;;;;;2.60;2.40;;;;;1.10;97313.00;;;;5035186;28;20607;-70
2023/01/24 07:09:27;;;;;;;2.73;2.63;;;;;1.10;97319.00;;;;5034540;28;20315;-70
2023/01/24 07:11:58;;;;;;;1.97;1.87;;;;;1.10;97318.00;;;;5035019;28;20219;-70
2023/01/24 07:14:25;;;;;;;4.00;3.70;;;;;1.20;97323.00;;;;5035399;28;20218;-69
2023/01/24 07:16:55;;;;;;;3.37;2.77;;;;;1.10;97320.00;;;;5034997;28;20221;-68
2023/01/24 07:19:25;;;;;;;3.07;2.47;;;;;1.10;97322.00;;;;5034946;28;20203;-70
2023/01/24 07:21:53;;;;;;;3.63;3.30;;;;;1.10;97328.00;;;;5035054;28;20223;-69
2023/01/24 07:24:23;;;;;;;3.97;3.67;;;;;1.00;97337.00;;;;5034837;28;20230;-68
2023/01/24 07:26:51;;;;;;;5.80;3.43;;;;;1.10;97330.00;;;;5034773;28;20199;-68
2023/01/24 07:29:20;;;;;;;4.33;3.93;;;;;1.10;97335.00;;;;5016996;28;20219;-69
2023/01/24 07:31:48;;;;;;;3.00;2.80;;;;;1.10;97345.00;;;;5034750;28;20227;-69
2023/01/24 07:34:16;;;;;;;2.63;2.43;;;;;1.20;97342.00;;;;5034948;28;20531;-69
2023/01/24 07:36:44;;;;;;;4.23;2.90;;;;;1.10;97349.00;;;;5034925;28;20585;-69
2023/01/24 07:39:12;;;;;;;4.37;3.97;;;;;1.10;97351.00;;;;5034482;28;20245;-67
2023/01/24 07:41:40;;;;;;;7.03;3.20;;;;;1.10;97348.00;;;;5034413;28;20219;-69
2023/01/24 07:44:07;;;;;;;3.07;2.83;;;;;1.10;97350.00;;;;5034437;28;20202;-69
2023/01/24 07:46:36;;;;;;;2.37;2.20;;;;;1.00;97358.00;;;;5034660;28;20196;-69
2023/01/24 07:49:04;;;;;;;4.63;3.33;;;;;0.90;97347.00;;;;5034578;28;20226;-69
2023/01/24 07:51:31;;;;;;;5.93;4.10;;;;;0.90;97357.00;;;;5034218;28;20269;-69
2023/01/24 07:53:59;;;;;;;4.33;3.77;;;;;1.00;97357.00;;;;5034363;28;20191;-68
2023/01/24 07:56:26;;;;;;;3.10;2.90;;;;;1.00;97359.00;;;;5034331;28;20611;-69
2023/01/24 07:58:55;;;;;;;3.57;3.27;;;;;1.10;97362.00;;;;5034211;28;20194;-70
2023/01/24 08:01:24;;;;;;;4.23;3.57;;;;;1.20;97362.00;;;;5030769;28;20211;-68
2023/01/24 08:03:56;;;;;;;3.90;3.33;;;;;1.20;97376.00;;;;5036378;28;20688;-69
2023/01/24 08:06:23;;;;;;;4.43;4.03;;;;;1.10;97372.00;;;;5028608;28;20198;-69
2023/01/24 08:08:51;;;;;;;3.03;2.53;;;;;1.10;97374.00;;;;5042107;28;20237;-69
2023/01/24 08:11:19;;;;;;;6.23;3.37;;;;;1.20;97372.00;;;;5047639;28;20199;-69
2023/01/24 08:13:46;;;;;;;2.47;2.27;;;;;1.20;97385.00;;;;5031805;28;20203;-68
2023/01/24 08:16:14;;;;;;;4.57;4.07;;;;;1.10;97385.00;;;;5042998;28;20200;-68
2023/01/24 08:18:43;;;;;;;4.57;3.77;;;;;1.20;97385.00;;;;5039696;28;20198;-69
2023/01/24 08:21:12;;;;;;;5.30;4.03;;;;;1.30;97383.00;;;;5047973;28;20214;-68
2023/01/24 08:23:39;;;;;;;9.53;5.60;;;;;1.30;97388.00;;;;5031867;28;20250;-68
2023/01/24 08:26:07;;;;;;;2.83;2.67;;;;;1.30;97377.00;;;;5032188;28;20665;-68
2023/01/24 08:28:35;;;;;;;2.63;2.43;;;;;1.30;97384.00;;;;5038957;28;20218;-68
2023/01/24 08:31:03;;;;;;;4.50;2.37;;;;;1.30;97388.00;;;;5052356;28;20202;-69
2023/01/24 08:33:30;;;;;;;6.33;4.60;;;;;1.40;97386.00;;;;5045320;28;20232;-68
2023/01/24 08:36:00;;;;;;;7.13;3.80;;;;;1.40;97398.00;;;;5032088;28;20204;-68
2023/01/24 08:38:28;;;;;;;4.87;3.47;;;;;1.40;97401.00;;;;5037309;28;20189;-68
2023/01/24 08:40:56;;;;;;;10.53;3.87;;;;;1.40;97402.00;;;;5043818;28;20198;-69
2023/01/24 08:43:23;;;;;;;3.33;3.10;;;;;1.30;97401.00;;;;5031205;28;20249;-69
2023/01/24 08:45:55;;;;;;;3.07;2.77;;;;;1.40;97408.00;;;;5032033;28;20211;-69
2023/01/24 08:48:23;;;;;;;2.97;2.50;;;;;1.40;97406.00;;;;5030998;28;20212;-69
2023/01/24 08:50:50;;;;;;;2.57;2.37;;;;;1.40;97403.00;;;;5014092;28;20206;-68
2023/01/24 08:53:18;;;;;;;4.90;3.73;;;;;1.50;97412.00;;;;5037856;28;20230;-69
2023/01/24 08:55:49;;;;;;;2.60;2.50;;;;;1.50;97422.00;;;;5051271;28;20658;-68
2023/01/24 08:58:17;;;;;;;2.50;2.30;;;;;1.50;97421.00;;;;5051292;28;20216;-68
2023/01/24 09:00:45;;;;;;;3.00;2.77;;;;;1.60;97408.00;;;;5021292;28;20207;-69
2023/01/24 09:03:15;;;;;;;3.10;2.73;;;;;1.60;97409.00;;;;5031141;28;20220;-69
2023/01/24 09:05:42;;;;;;;1.77;1.67;;;;;1.60;97407.00;;;;5031833;28;20192;-69
2023/01/24 09:08:10;;;;;;;2.93;2.70;;;;;1.60;97398.00;;;;5030839;28;20234;-69
2023/01/24 09:10:38;;;;;;;4.00;2.57;;;;;1.70;97411.00;;;;5031113;28;20201;-69
2023/01/24 09:13:07;;;;;;;4.30;4.00;;;;;1.70;97415.00;;;;5031004;28;20223;-68
2023/01/24 09:15:34;;;;;;;3.77;3.47;;;;;1.70;97416.00;;;;5031739;28;20544;-68
2023/01/24 09:18:02;;;;;;;4.33;3.97;;;;;1.80;97409.00;;;;5030575;28;20196;-68
2023/01/24 09:20:30;;;;;;;4.60;2.70;;;;;1.80;97409.00;;;;5031350;28;20231;-68
2023/01/24 09:22:57;;;;;;;2.80;2.60;;;;;1.80;97418.00;;;;5031054;28;20655;-69
2023/01/24 09:25:25;;;;;;;4.13;3.20;;;;;1.80;97417.00;;;;5029917;28;20689;-68
2023/01/24 09:27:56;;;;;;;3.13;2.83;;;;;1.70;97423.00;;;;5030140;28;20199;-68
2023/01/24 09:30:25;;;;;;;3.50;3.20;;;;;1.70;97425.00;;;;5030978;28;20195;-68
2023/01/24 09:32:53;;;;;;;6.67;3.30;;;;;1.70;97417.00;;;;5034052;28;20223;-69
2023/01/24 09:35:20;;;;;;;2.97;2.67;;;;;1.60;97438.00;;;;5017520;28;20689;-68
2023/01/24 09:37:48;;;;;;;6.00;4.40;;;;;1.60;97421.00;;;;5034471;28;20245;-69
2023/01/24 09:40:21;;;;;;;4.93;4.43;;;;;1.70;97427.00;;;;5035118;28;20203;-69
2023/01/24 09:42:58;;;;;;;5.70;3.83;;;;;1.80;97426.00;;;;5031302;28;20234;-69
2023/01/24 09:45:34;;;;;;;3.67;3.33;;;;;1.60;97433.00;;;;5031779;28;20199;-69
2023/01/24 09:48:03;;;;;;;10.43;3.00;;;;;1.70;97437.00;;;;5034147;28;20194;-69
2023/01/24 09:50:41;;;;;;;3.83;2.33;;;;;1.90;97431.00;;;;5035001;28;20222;-69
2023/01/24 09:53:15;;;;;;;2.60;2.23;;;;;1.70;97437.00;;;;5033449;28;20224;-68
2023/01/24 09:55:43;;;;;;;2.57;2.43;;;;;1.70;97429.00;;;;5030571;28;20708;-69
2023/01/24 09:58:30;;;;;;;5.97;4.33;;;;;1.80;97433.00;;;;5012728;28;20203;-69
2023/01/24 10:01:01;;;;;;;3.33;3.07;;;;;1.80;97428.00;;;;5054617;28;20234;-68
2023/01/24 10:03:29;;;;;;;2.90;2.70;;;;;1.90;97434.00;;;;5053833;28;20220;-69
2023/01/24 10:06:01;;;;;;;13.43;4.27;;;;;1.80;97433.00;;;;5054776;28;20209;-69
2023/01/24 10:08:34;;;;;;;2.57;2.47;;;;;1.90;97429.00;;;;5054140;28;20262;-69
2023/01/24 10:11:19;;;;;;;3.93;3.63;;;;;1.90;97434.00;;;;5033231;28;20184;-69
2023/01/24 10:14:12;;;;;;;5.93;3.27;;;;;1.90;97432.00;;;;5032675;28;20554;-69
2023/01/24 10:17:07;;;;;;;4.37;2.57;;;;;1.90;97427.00;;;;5031902;28;20254;-70
2023/01/24 10:19:53;;;;;;;4.50;3.33;;;;;1.80;97431.00;;;;5033780;28;20195;-69
2023/01/24 10:22:35;;;;;;;2.77;2.57;;;;;1.90;97432.00;;;;5038935;28;20230;-69
2023/01/24 10:25:12;;;;;;;5.33;2.57;;;;;1.80;97430.00;;;;5053765;28;20274;-69
2023/01/24 10:27:43;;;;;;;3.47;3.10;;;;;1.90;97439.00;;;;5029939;28;20199;-68
2023/01/24 10:30:17;;;;;;;4.20;2.50;;;;;1.90;97436.00;;;;5038850;28;20223;-68
2023/01/24 10:32:51;;;;;;;3.17;2.53;;;;;1.80;97439.00;;;;5033870;28;20224;-68
2023/01/24 10:35:23;;;;;;;2.53;2.37;;;;;1.80;97435.00;;;;5033906;28;20200;-68
2023/01/24 10:37:55;;;;;;;7.20;3.83;;;;;1.80;97435.00;;;;5015103;28;20264;-68
2023/01/24 10:40:25;;;;;;;3.60;3.27;;;;;1.80;97429.00;;;;5015231;28;20220;-68
2023/01/24 10:42:53;;;;;;;2.17;2.07;;;;;1.80;97432.00;;;;5014735;28;20314;-68
2023/01/24 10:45:43;;;;;;;3.17;2.87;;;;;1.90;97420.00;;;;5033683;28;20200;-68
2023/01/24 10:48:26;;;;;;;3.33;2.53;;;;;2.10;97421.00;;;;5033579;28;21002;-68
2023/01/24 10:50:53;;;;;;;3.67;3.10;;;;;1.90;97429.00;;;;5029430;28;20199;-69
2023/01/24 10:53:24;;;;;;;2.57;2.37;;;;;1.90;97420.00;;;;5028732;28;20225;-68
2023/01/24 10:56:00;;;;;;;3.80;3.50;;;;;2.00;97423.00;;;;5029821;28;20241;-68
2023/01/24 10:58:28;;;;;;;2.50;2.23;;;;;1.90;97430.00;;;;5033028;28;20682;-68
2023/01/24 11:00:58;;;;;;;3.00;2.70;;;;;1.90;97414.00;;;;5033290;28;20199;-68
2023/01/24 11:03:29;;;;;;;2.80;2.60;;;;;1.90;97421.00;;;;5034034;28;20303;-68
2023/01/24 11:05:58;;;;;;;1.80;1.70;;;;;2.10;97417.00;;;;5053903;28;20203;-68
2023/01/24 11:08:32;;;;;;;4.00;2.13;;;;;2.20;97410.00;;;;5051709;28;20624;-68
2023/01/24 11:11:00;;;;;;;2.87;2.20;;;;;2.40;97417.00;;;;5053115;28;20574;-68
2023/01/24 11:13:35;;;;;;;1.97;1.87;;;;;2.30;97425.00;;;;5038565;28;20219;-68
2023/01/24 11:16:05;;;;;;;3.60;2.87;;;;;2.20;97418.00;;;;5028836;28;20192;-68
2023/01/24 11:18:36;;;;;;;3.30;2.83;;;;;2.20;97415.00;;;;5029892;28;20196;-68
2023/01/24 11:21:13;;;;;;;4.03;3.33;;;;;2.10;97413.00;;;;5029803;28;20204;-68
2023/01/24 11:23:41;;;;;;;2.63;2.43;;;;;2.20;97413.00;;;;5032533;28;20211;-68
2023/01/24 11:26:23;;;;;;;3.30;2.93;;;;;2.20;97419.00;;;;5035397;28;20206;-72
2023/01/24 11:28:58;;;;;;;4.17;3.20;;;;;2.20;97412.00;;;;5037181;28;20213;-71
2023/01/24 11:31:30;;;;;;;4.60;3.27;;;;;2.30;97407.00;;;;5044017;28;20199;-71
2023/01/24 11:34:17;;;;;;;2.43;2.30;;;;;2.30;97409.00;;;;5052821;28;20192;-72
2023/01/24 11:36:54;;;;;;;2.60;2.40;;;;;2.20;97406.00;;;;5043952;28;20251;-72
2023/01/24 11:39:26;;;;;;;3.47;2.13;;;;;2.40;97403.00;;;;5028367;28;20199;-66
2023/01/24 11:41:59;;;;;;;2.73;2.53;;;;;2.50;97402.00;;;;5028755;28;20227;-68
2023/01/24 11:45:04;;;;;;;2.20;1.87;;;;;2.30;97406.00;;;;5034049;28;20199;-69
2023/01/24 11:47:37;;;;;;;2.83;2.63;;;;;2.30;97402.00;;;;5034612;28;20204;-68
2023/01/24 11:50:27;;;;;;;3.50;3.10;;;;;2.30;97392.00;;;;5040168;28;20257;-73
2023/01/24 11:53:14;;;;;;;2.63;2.43;;;;;2.40;97390.00;;;;5038086;28;20226;-72
2023/01/24 11:55:52;;;;;;;2.33;2.23;;;;;2.30;97388.00;;;;5052116;28;20280;-68
2023/01/24 11:58:44;;;;;;;3.57;3.30;;;;;2.30;97393.00;;;;5052458;28;20313;-72
2023/01/24 12:01:18;;;;;;;3.87;2.63;;;;;2.30;97394.00;;;;5032735;28;20275;-71
2023/01/24 12:04:08;;;;;;;3.07;2.77;;;;;2.30;97396.00;;;;5050852;28;20192;-72
2023/01/24 12:06:46;;;;;;;5.47;3.37;;;;;2.30;97386.00;;;;5052650;28;20249;-71
2023/01/24 12:09:19;;;;;;;2.17;2.07;;;;;2.40;97388.00;;;;5022393;28;20691;-71
2023/01/24 12:11:56;;;;;;;2.00;1.90;;;;;2.40;97388.00;;;;5032048;28;20234;-71
2023/01/24 12:14:53;;;;;;;1.77;1.67;;;;;2.50;97380.00;;;;5027702;28;20253;-72
2023/01/24 12:17:37;;;;;;;4.13;3.83;;;;;2.50;97375.00;;;;5032394;28;20253;-71
2023/01/24 12:20:23;;;;;;;2.80;2.63;;;;;2.40;97376.00;;;;5028502;28;20192;-73
2023/01/24 12:22:54;;;;;;;2.87;2.63;;;;;2.30;97378.00;;;;5031696;28;20283;-71
2023/01/24 12:25:29;;;;;;;3.83;2.47;;;;;2.30;97377.00;;;;5031937;28;20587;-71
2023/01/24 12:28:00;;;;;;;3.17;2.97;;;;;2.40;97370.00;;;;5010006;28;20298;-72
2023/01/24 12:30:33;;;;;;;2.47;2.27;;;;;2.40;97370.00;;;;5031813;28;20695;-71
2023/01/24 12:33:09;;;;;;;2.13;2.03;;;;;2.40;97374.00;;;;5039078;28;20231;-71
2023/01/24 12:35:41;;;;;;;2.17;2.07;;;;;2.50;97374.00;;;;5050815;28;20567;-71
2023/01/24 12:38:18;;;;;;;3.17;2.53;;;;;2.30;97373.00;;;;5044704;28;20192;-71
2023/01/24 12:40:51;;;;;;;4.00;3.00;;;;;2.20;97367.00;;;;5029097;28;20195;-72
2023/01/24 12:43:27;;;;;;;2.67;2.43;;;;;2.20;97367.00;;;;5027463;28;20595;-72
2023/01/24 12:46:02;;;;;;;2.63;2.43;;;;;2.20;97373.00;;;;5031644;28;20199;-72
2023/01/24 12:48:37;;;;;;;2.83;2.63;;;;;2.30;97371.00;;;;5013832;28;20200;-72
2023/01/24 12:51:14;;;;;;;6.20;3.00;;;;;2.20;97369.00;;;;5031437;28;20209;-72
2023/01/24 12:54:02;;;;;;;2.80;2.60;;;;;2.30;97354.00;;;;5026962;28;20198;-71
2023/01/24 12:56:38;;;;;;;2.53;2.33;;;;;2.30;97354.00;;;;5030156;28;20215;-71
2023/01/24 12:59:08;;;;;;;3.80;2.03;;;;;2.40;97355.00;;;;5029872;28;20194;-72
2023/01/24 13:01:56;;;;;;;9.13;4.17;;;;;2.40;97364.00;;;;5040507;28;20219;-71
2023/01/24 13:04:36;;;;;;;3.13;2.60;;;;;2.40;97349.00;;;;5051221;28;20196;-71
2023/01/24 13:07:13;;;;;;;2.33;2.03;;;;;2.30;97362.00;;;;5050377;28;20192;-72
2023/01/24 13:09:50;;;;;;;3.00;2.80;;;;;2.40;97355.00;;;;5026363;28;20204;-72
2023/01/24 13:12:22;;;;;;;3.03;2.83;;;;;2.30;97348.00;;;;5027524;28;20215;-72
2023/01/24 13:14:56;;;;;;;2.83;2.57;;;;;2.30;97350.00;;;;5031008;28;20192;-72
2023/01/24 13:17:52;;;;;;;3.70;3.27;;;;;2.40;97353.00;;;;5038708;28;20199;-72
2023/01/24 13:20:32;;;;;;;2.63;2.47;;;;;2.30;97345.00;;;;5044506;28;20219;-71